Time;durP1;ratioP1;P1;durP2;ratioP2;P2;SDS_P1;SDS_P2;PMS_P1;PMS_P2;Temp;Humidity;BMP_temperature;BMP_pressure;BME280_temperature;BME280_humidity;BME280_pressure;Samples;Min_cycle;Max_cycle;Signal;HPM_P1;HPM_P2
2022/12/21 00:01:54;;;;;;;78.60;39.38;;;;;;;8.73;100.00;101030.03;5258157;28;20030;-86
2022/12/21 00:04:26;;;;;;;99.95;41.72;;;;;;;8.69;100.00;101013.47;5259825;28;20052;-86
2022/12/21 00:06:57;;;;;;;111.80;41.13;;;;;;;8.72;100.00;101017.72;5258816;28;20113;-86
2022/12/21 00:09:29;;;;;;;88.00;41.15;;;;;;;8.70;100.00;101024.00;5258084;28;20035;-85
2022/12/21 00:12:00;;;;;;;81.15;37.08;;;;;;;8.73;100.00;101024.69;5259869;28;20132;-85
2022/12/21 00:14:31;;;;;;;102.55;42.63;;;;;;;8.68;100.00;101022.44;5261393;28;20467;-86
2022/12/21 00:17:03;;;;;;;86.57;40.38;;;;;;;8.67;100.00;101020.75;5262421;28;20026;-85
2022/12/21 00:19:34;;;;;;;73.32;36.42;;;;;;;8.68;100.00;101030.41;5277407;28;20022;-86
2022/12/21 00:22:05;;;;;;;75.18;37.95;;;;;;;8.66;100.00;101021.69;5258408;28;20966;-85
2022/12/21 00:24:37;;;;;;;94.05;41.53;;;;;;;8.59;100.00;101021.38;5256639;28;34894;-85
2022/12/21 00:27:08;;;;;;;107.70;42.42;;;;;;;8.56;100.00;101018.97;5254003;28;20482;-85
2022/12/21 00:29:39;;;;;;;95.28;42.67;;;;;;;8.55;100.00;101019.09;5256483;28;20052;-85
2022/12/21 00:32:10;;;;;;;114.18;44.42;;;;;;;8.55;100.00;101022.56;5257400;28;20045;-86
2022/12/21 00:34:42;;;;;;;99.78;41.92;;;;;;;8.55;100.00;101019.91;5259623;28;32138;-86
2022/12/21 00:37:13;;;;;;;126.68;43.38;;;;;;;8.53;100.00;101016.53;5258635;28;20037;-86
2022/12/21 00:39:44;;;;;;;87.25;37.67;;;;;;;8.56;100.00;101018.13;5258558;28;20033;-85
2022/12/21 00:42:15;;;;;;;100.85;43.17;;;;;;;8.55;100.00;101021.75;5256226;28;20029;-86
2022/12/21 00:44:47;;;;;;;112.68;42.20;;;;;;;8.55;100.00;101030.56;5258740;28;20028;-86
2022/12/21 00:47:18;;;;;;;105.78;45.47;;;;;;;8.52;100.00;101034.31;5241783;28;20033;-85
2022/12/21 00:49:49;;;;;;;101.15;42.53;;;;;;;8.55;100.00;101027.06;5239552;28;20115;-86
2022/12/21 00:52:21;;;;;;;108.68;46.45;;;;;;;8.50;100.00;101022.09;5241301;28;20052;-85
2022/12/21 00:54:52;;;;;;;100.88;40.67;;;;;;;8.50;100.00;101030.94;5235727;28;20032;-84
2022/12/21 00:57:23;;;;;;;77.25;37.60;;;;;;;8.56;100.00;101026.94;5256215;28;20579;-85
2022/12/21 00:59:55;;;;;;;102.15;43.85;;;;;;;8.54;100.00;101031.53;5256044;28;20407;-85
2022/12/21 01:02:26;;;;;;;112.43;47.10;;;;;;;8.54;100.00;101036.84;5240136;28;20397;-86
2022/12/21 01:04:57;;;;;;;124.15;49.50;;;;;;;8.51;100.00;101029.13;5256507;28;20104;-85
2022/12/21 01:07:28;;;;;;;102.60;42.95;;;;;;;8.56;100.00;101036.75;5257324;28;20026;-85
2022/12/21 01:10:00;;;;;;;114.65;46.60;;;;;;;8.51;100.00;101040.59;5256522;28;20026;-85
2022/12/21 01:12:31;;;;;;;99.03;39.42;;;;;;;8.54;100.00;101042.19;5256261;28;20405;-85
2022/12/21 01:15:03;;;;;;;115.40;44.83;;;;;;;8.57;100.00;101043.72;5256923;28;20045;-85
2022/12/21 01:17:35;;;;;;;154.27;48.80;;;;;;;8.56;100.00;101048.22;5260103;28;20041;-85
2022/12/21 01:20:06;;;;;;;106.78;42.95;;;;;;;8.54;100.00;101044.84;5263366;28;20071;-85
2022/12/21 01:22:38;;;;;;;123.53;50.13;;;;;;;8.51;100.00;101055.72;5270061;28;20079;-86
2022/12/21 01:25:09;;;;;;;141.02;49.45;;;;;;;8.51;100.00;101048.56;5283190;28;20037;-85
2022/12/21 01:27:41;;;;;;;117.63;48.60;;;;;;;8.47;100.00;101044.47;5290689;28;20025;-86
2022/12/21 01:30:12;;;;;;;114.85;48.25;;;;;;;8.55;100.00;101045.66;5287149;28;20089;-85
2022/12/21 01:32:43;;;;;;;113.78;46.10;;;;;;;8.55;100.00;101045.66;5285804;28;20034;-85
2022/12/21 01:35:15;;;;;;;121.47;46.97;;;;;;;8.54;100.00;101051.94;5253242;28;20025;-86
2022/12/21 01:37:46;;;;;;;147.80;50.95;;;;;;;8.51;100.00;101064.53;5267632;28;20056;-85
2022/12/21 01:40:18;;;;;;;102.70;43.42;;;;;;;8.54;100.00;101067.91;5266000;28;20119;-86
2022/12/21 01:42:50;;;;;;;145.75;46.95;;;;;;;8.51;100.00;101066.34;5263932;28;20025;-86
2022/12/21 01:45:30;;;;;;;148.80;49.95;;;;;;;8.53;100.00;101072.38;5246656;28;20108;-86
2022/12/21 01:48:09;;;;;;;101.55;44.85;;;;;;;8.52;100.00;101071.53;5262128;28;20079;-84
2022/12/21 01:50:46;;;;;;;103.97;42.50;;;;;;;8.52;100.00;101065.38;5261813;28;20454;-85
2022/12/21 01:53:26;;;;;;;;;;;;;;;8.60;100.00;101070.91;5261869;28;20041;-85
2022/12/21 01:55:59;;;;;;;76.53;33.92;;;;;;;8.56;100.00;101063.31;5262288;28;19986;-86
2022/12/21 01:58:32;;;;;;;88.50;38.45;;;;;;;8.54;100.00;101062.56;5261958;28;20543;-86
2022/12/21 02:01:08;;;;;;;97.55;41.92;;;;;;;8.52;100.00;101062.72;5262376;28;20030;-85
2022/12/21 02:03:44;;;;;;;131.90;49.43;;;;;;;8.45;100.00;101054.41;5259494;28;20056;-86
2022/12/21 02:06:22;;;;;;;108.20;46.03;;;;;;;8.47;100.00;101049.78;5258333;28;20276;-86
2022/12/21 02:08:54;;;;;;;138.95;46.33;;;;;;;8.43;100.00;101060.78;5259338;28;20036;-86
2022/12/21 02:11:25;;;;;;;130.13;48.75;;;;;;;8.38;100.00;101049.66;5258413;28;20029;-86
2022/12/21 02:13:57;;;;;;;151.45;50.22;;;;;;;8.36;100.00;101043.63;5260090;28;20889;-86
2022/12/21 02:16:35;;;;;;;101.82;42.97;;;;;;;8.39;100.00;101049.53;5240341;28;20029;-86
2022/12/21 02:19:39;;;;;;;129.55;48.15;;;;;;;8.38;100.00;101053.16;5258503;28;20029;-85
2022/12/21 02:22:32;;;;;;;139.00;51.67;;;;;;;8.38;100.00;101049.66;5258898;28;20044;-85
2022/12/21 02:25:28;;;;;;;136.45;49.97;;;;;;;8.36;100.00;101047.09;5259255;28;20494;-85
2022/12/21 02:28:17;;;;;;;107.85;43.50;;;;;;;8.40;100.00;101043.25;5258086;28;20053;-86
2022/12/21 02:31:06;;;;;;;110.60;45.22;;;;;;;8.42;100.00;101049.31;5258005;28;20438;-85
2022/12/21 02:33:47;;;;;;;163.68;48.75;;;;;;;8.41;100.00;101044.09;5256272;28;20049;-85
2022/12/21 02:36:24;;;;;;;112.82;46.65;;;;;;;8.36;100.00;101047.09;5259074;28;20033;-85
2022/12/21 02:39:10;;;;;;;99.13;42.33;;;;;;;8.43;100.00;101044.84;5258674;28;20033;-85
2022/12/21 02:42:02;;;;;;;132.60;50.30;;;;;;;8.39;100.00;101049.53;5257529;28;21072;-85
2022/12/21 02:44:57;;;;;;;95.65;41.90;;;;;;;8.39;100.00;101043.38;5239772;28;20639;-85
2022/12/21 02:47:55;;;;;;;126.40;49.83;;;;;;;8.36;100.00;101040.94;5256253;28;20036;-86
2022/12/21 02:50:37;;;;;;;123.45;47.67;;;;;;;8.36;100.00;101036.47;5255647;28;20440;-85
2022/12/21 02:53:22;;;;;;;107.95;47.30;;;;;;;8.38;100.00;101042.53;5255686;28;20160;-86
2022/12/21 02:55:53;;;;;;;86.70;41.03;;;;;;;8.41;100.00;101038.78;5256273;28;20762;-85
2022/12/21 02:58:25;;;;;;;103.47;45.58;;;;;;;8.41;100.00;101030.81;5256238;28;20040;-86
2022/12/21 03:01:21;;;;;;;150.30;56.78;;;;;;;8.41;100.00;101049.41;5259010;28;20477;-85
2022/12/21 03:04:18;;;;;;;137.05;53.15;;;;;;;8.38;100.00;101045.19;5258286;28;20034;-85
2022/12/21 03:06:55;;;;;;;135.38;53.15;;;;;;;8.33;100.00;101039.41;5255360;28;20017;-85
2022/12/21 03:09:54;;;;;;;150.95;56.85;;;;;;;8.33;100.00;101039.41;5258893;28;20044;-84
2022/12/21 03:12:25;;;;;;;158.98;58.58;;;;;;;8.26;100.00;101039.03;5260508;28;20080;-85
2022/12/21 03:15:28;;;;;;;159.43;59.17;;;;;;;8.28;100.00;101028.28;5260791;28;20021;-84
2022/12/21 03:18:17;;;;;;;158.52;59.47;;;;;;;8.25;100.00;101039.16;5255470;28;20344;-86
2022/12/21 03:21:01;;;;;;;164.23;57.70;;;;;;;8.21;100.00;101027.94;5257779;28;20033;-85
2022/12/21 03:24:07;;;;;;;140.20;55.00;;;;;;;8.25;100.00;101029.38;5256348;28;20572;-86
2022/12/21 03:26:41;;;;;;;134.90;52.30;;;;;;;8.22;100.00;101024.31;5233543;28;20081;-85
2022/12/21 03:29:18;;;;;;;152.95;57.10;;;;;;;8.19;100.00;101013.94;5257669;28;20172;-85
2022/12/21 03:32:03;;;;;;;168.07;58.30;;;;;;;8.24;100.00;101011.75;5255492;28;20045;-84
2022/12/21 03:34:42;;;;;;;158.20;56.42;;;;;;;8.24;100.00;101021.50;5257150;28;20026;-85
2022/12/21 03:37:19;;;;;;;140.80;55.42;;;;;;;8.21;100.00;101032.41;5257428;28;20555;-86
2022/12/21 03:39:57;;;;;;;144.75;58.40;;;;;;;8.19;100.00;101024.56;5257081;28;20029;-86
2022/12/21 03:42:33;;;;;;;140.35;56.28;;;;;;;8.21;100.00;101030.59;5257892;28;20028;-84
2022/12/21 03:45:08;;;;;;;163.82;58.10;;;;;;;8.19;100.00;101031.66;5257351;28;20028;-85
2022/12/21 03:47:48;;;;;;;150.10;56.55;;;;;;;8.22;100.00;101021.66;5257945;28;20026;-86
2022/12/21 03:50:27;;;;;;;136.38;54.13;;;;;;;8.23;100.00;101027.81;5255998;28;20076;-86
2022/12/21 03:53:20;;;;;;;157.57;57.67;;;;;;;8.19;100.00;101024.56;5256887;28;20025;-86
2022/12/21 03:55:56;;;;;;;167.48;57.17;;;;;;;8.16;100.00;101013.34;5257553;28;20623;-84
2022/12/21 03:58:28;;;;;;;154.38;56.50;;;;;;;8.18;100.00;101022.03;5259129;28;20390;-84
2022/12/21 04:01:05;;;;;;;133.65;55.05;;;;;;;8.18;100.00;101028.16;5264379;28;20041;-85
2022/12/21 04:03:41;;;;;;;131.38;55.10;;;;;;;8.15;100.00;101028.41;5266182;28;20103;-85
2022/12/21 04:06:50;;;;;;;114.35;48.08;;;;;;;8.12;100.00;101012.72;5342900;27;20471;-84
2022/12/21 04:09:21;;;;;;;110.78;48.50;;;;;;;8.09;100.00;101007.66;5346895;27;20844;-85
2022/12/21 04:14:44;;;;;;;103.45;47.17;;;;;;;8.05;100.00;101014.19;5347325;27;20705;-84
2022/12/21 04:17:15;;;;;;;109.15;50.53;;;;;;;7.97;100.00;101003.31;5344621;27;20031;-84
2022/12/21 04:19:59;;;;;;;86.50;43.40;;;;;;;7.98;100.00;101005.00;5349550;27;20391;-85
2022/12/21 04:28:28;;;;;;;84.35;42.00;;;;;;;7.85;100.00;101018.41;5341087;27;20698;-84
2022/12/21 04:31:00;;;;;;;83.28;42.28;;;;;;;7.76;100.00;101006.69;5343603;27;20073;-84
2022/12/21 04:33:32;;;;;;;87.53;41.72;;;;;;;7.76;100.00;101022.63;5344748;27;20545;-84
2022/12/21 04:38:54;;;;;;;74.53;37.05;;;;;;;7.68;100.00;101003.78;5348119;27;20115;-84
2022/12/21 04:41:25;;;;;;;76.53;37.78;;;;;;;7.65;100.00;100999.56;5344901;27;21528;-84
2022/12/21 04:43:57;;;;;;;71.22;36.25;;;;;;;7.64;100.00;100997.88;5347345;27;20382;-84
2022/12/21 04:46:28;;;;;;;64.53;32.75;;;;;;;7.67;100.00;100996.81;5348589;27;20075;-84
2022/12/21 04:49:00;;;;;;;68.82;36.80;;;;;;;7.66;100.00;101003.06;5347517;27;20011;-84
2022/12/21 04:51:31;;;;;;;73.25;37.63;;;;;;;7.62;100.00;101009.59;5342259;27;20032;-84
2022/12/21 04:54:04;;;;;;;73.68;36.78;;;;;;;7.60;100.00;101006.22;5338439;27;20145;-84
2022/12/21 04:56:35;;;;;;;75.55;38.00;;;;;;;7.52;100.00;100985.56;5349730;27;20484;-84
2022/12/21 04:59:06;;;;;;;64.78;33.58;;;;;;;7.64;100.00;100999.69;5345519;27;20038;-84
2022/12/21 05:01:37;;;;;;;69.75;35.75;;;;;;;7.59;100.00;101000.06;5350584;27;20025;-84
2022/12/21 05:04:10;;;;;;;70.38;35.33;;;;;;;7.59;100.00;100997.41;5338940;27;20383;-84
2022/12/21 05:06:41;;;;;;;68.63;36.35;;;;;;;7.51;100.00;100992.69;5346172;27;20039;-84
2022/12/21 05:09:13;;;;;;;66.30;36.35;;;;;;;7.45;100.00;100992.28;5344406;27;20452;-84
2022/12/21 05:11:44;;;;;;;72.15;33.78;;;;;;;7.47;100.00;100998.31;5348686;27;20106;-85
2022/12/21 05:14:16;;;;;;;82.47;35.63;;;;;;;7.46;100.00;101001.97;5346567;27;21697;-85
2022/12/21 05:16:47;;;;;;;68.82;35.20;;;;;;;7.48;100.00;101003.53;5337754;27;20023;-84
2022/12/21 05:19:18;;;;;;;75.57;36.17;;;;;;;7.47;100.00;101008.94;5324529;27;20024;-85
2022/12/21 05:21:51;;;;;;;80.10;36.63;;;;;;;7.44;100.00;101003.91;5334275;27;20027;-85
2022/12/21 05:24:22;;;;;;;68.15;34.08;;;;;;;7.43;100.00;101004.84;5325751;27;20021;-84
2022/12/21 05:26:53;;;;;;;60.70;29.80;;;;;;;7.45;100.00;101001.13;5334256;27;20024;-85
2022/12/21 05:29:25;;;;;;;70.43;33.03;;;;;;;7.43;100.00;100988.91;5336488;27;20379;-84
2022/12/21 05:31:56;;;;;;;62.13;30.88;;;;;;;7.40;100.00;100990.03;5327207;27;20435;-84
2022/12/21 05:34:27;;;;;;;55.65;30.02;;;;;;;7.42;100.00;101001.34;5333719;27;20392;-85
2022/12/21 05:36:58;;;;;;;63.05;31.13;;;;;;;7.42;100.00;100992.56;5334144;27;20017;-85
2022/12/21 05:39:30;;;;;;;58.95;30.30;;;;;;;7.37;100.00;101003.50;5331244;27;20059;-85
2022/12/21 05:42:02;;;;;;;51.28;27.88;;;;;;;7.42;100.00;100987.25;5334732;27;20020;-85
2022/12/21 05:44:33;;;;;;;57.85;27.80;;;;;;;7.35;100.00;100995.66;5329180;27;20050;-84
2022/12/21 05:47:05;;;;;;;56.08;29.70;;;;;;;7.33;100.00;101000.25;5331174;27;20028;-85
2022/12/21 05:49:36;;;;;;;58.83;29.40;;;;;;;7.28;100.00;100997.09;5328530;27;20024;-84
2022/12/21 05:52:07;;;;;;;53.63;28.77;;;;;;;7.27;100.00;100997.22;5335612;27;20526;-84
2022/12/21 05:54:39;;;;;;;52.03;27.80;;;;;;;7.22;100.00;100992.25;5331316;27;28491;-84
2022/12/21 05:57:10;;;;;;;55.35;28.33;;;;;;;7.14;100.00;100974.28;5331587;27;20070;-84
2022/12/21 05:59:41;;;;;;;54.28;27.30;;;;;;;7.19;100.00;100982.72;5334492;27;20414;-84
2022/12/21 06:02:13;;;;;;;52.65;25.67;;;;;;;7.27;100.00;100994.56;5328080;27;20031;-84
2022/12/21 06:04:45;;;;;;;52.80;26.75;;;;;;;7.17;100.00;100973.19;5329018;27;20072;-84
2022/12/21 06:07:17;;;;;;;52.05;25.90;;;;;;;7.14;100.00;100974.28;5331474;27;20040;-84
2022/12/21 06:09:48;;;;;;;47.05;25.15;;;;;;;7.12;100.00;100981.50;5328346;27;20089;-84
2022/12/21 06:12:20;;;;;;;45.92;22.73;;;;;;;7.18;100.00;100977.53;5336028;27;20024;-84
2022/12/21 06:14:51;;;;;;;44.70;21.45;;;;;;;7.08;100.00;100972.09;5333746;27;20423;-84
2022/12/21 06:17:22;;;;;;;45.20;22.63;;;;;;;7.10;100.00;100975.50;5327927;27;20019;-84
2022/12/21 06:19:53;;;;;;;45.25;22.35;;;;;;;7.06;100.00;100978.47;5329067;27;20158;-85
2022/12/21 06:22:25;;;;;;;43.10;21.23;;;;;;;6.97;100.00;100967.59;5328848;27;20051;-84
2022/12/21 06:24:56;;;;;;;43.53;20.45;;;;;;;6.99;100.00;100983.38;5330768;27;20085;-84
2022/12/21 06:27:27;;;;;;;41.45;19.45;;;;;;;6.96;100.00;100983.63;5331934;27;20069;-84
2022/12/21 06:29:59;;;;;;;37.03;18.50;;;;;;;6.87;100.00;100974.53;5320166;27;20017;-84
2022/12/21 06:32:30;;;;;;;43.83;18.50;;;;;;;6.88;100.00;100988.66;5329800;27;20032;-84
2022/12/21 06:35:05;;;;;;;33.67;17.17;;;;;;;6.84;100.00;100979.22;5338289;27;20072;-84
2022/12/21 06:37:37;;;;;;;34.08;16.02;;;;;;;6.86;100.00;100974.69;5332792;27;20290;-85
2022/12/21 06:40:08;;;;;;;33.80;15.93;;;;;;;6.90;100.00;100986.75;5332341;27;20030;-84
2022/12/21 06:42:40;;;;;;;36.03;16.05;;;;;;;6.90;100.00;100979.63;5329272;27;20028;-84
2022/12/21 06:45:11;;;;;;;29.13;14.40;;;;;;;6.97;100.00;100983.50;5332303;27;20031;-84
2022/12/21 06:47:42;;;;;;;28.80;13.25;;;;;;;7.02;100.00;100987.63;5331304;27;20154;-84
2022/12/21 06:50:14;;;;;;;29.85;14.32;;;;;;;7.05;100.00;100987.38;5330224;27;20034;-84
2022/12/21 06:52:47;;;;;;;31.15;14.60;;;;;;;6.99;100.00;100989.56;5321770;27;20040;-84
2022/12/21 06:55:18;;;;;;;30.02;13.32;;;;;;;7.05;100.00;100987.38;5328047;27;20070;-84
2022/12/21 06:57:49;;;;;;;31.17;14.35;;;;;;;7.01;100.00;101000.03;5331394;27;20020;-84
2022/12/21 07:00:21;;;;;;;28.17;14.13;;;;;;;7.06;100.00;101019.09;5336046;27;20058;-84
2022/12/21 07:02:52;;;;;;;30.23;13.43;;;;;;;6.98;100.00;100998.47;5326564;27;20837;-84
2022/12/21 07:05:24;;;;;;;32.28;14.55;;;;;;;6.97;100.00;100999.41;5327178;27;20507;-84
2022/12/21 07:07:55;;;;;;;27.65;12.70;;;;;;;6.94;100.00;101009.41;5328892;27;20025;-84
2022/12/21 07:10:27;;;;;;;28.38;12.75;;;;;;;6.85;100.00;101005.63;5334194;27;20079;-84
2022/12/21 07:12:58;;;;;;;22.83;12.45;;;;;;;6.78;100.00;101001.75;5331760;27;20442;-84
2022/12/21 07:15:34;;;;;;;26.42;11.77;;;;;;;6.75;100.00;101001.97;5325797;27;20099;-84
2022/12/21 07:18:05;;;;;;;23.17;11.15;;;;;;;6.72;100.00;101008.38;5324661;27;20032;-84
2022/12/21 07:20:36;;;;;;;25.48;12.95;;;;;;;6.67;100.00;101007.84;5336846;27;20031;-84
2022/12/21 07:23:08;;;;;;;30.90;13.55;;;;;;;6.62;100.00;101017.94;5329843;27;20050;-83
2022/12/21 07:25:39;;;;;;;25.92;12.27;;;;;;;6.61;100.00;101021.56;5327708;27;20487;-84
2022/12/21 07:28:11;;;;;;;31.75;12.82;;;;;;;6.60;100.00;101015.41;5324442;27;20031;-83
2022/12/21 07:30:47;;;;;;;28.92;13.45;;;;;;;6.56;100.00;101013.94;5330763;27;20028;-83
2022/12/21 07:33:19;;;;;;;23.52;12.27;;;;;;;6.56;100.00;101024.56;5334319;27;20028;-83
2022/12/21 07:35:58;;;;;;;29.02;13.32;;;;;;;6.57;100.00;101030.69;5328227;27;20026;-83
2022/12/21 07:38:31;;;;;;;28.88;12.18;;;;;;;6.60;100.00;101023.34;5333086;27;20016;-84
2022/12/21 07:41:05;;;;;;;23.60;12.98;;;;;;;6.65;100.00;101043.41;5330853;27;22278;-83
2022/12/21 07:43:37;;;;;;;31.88;14.23;;;;;;;6.64;100.00;101050.47;5329843;27;20499;-83
2022/12/21 07:46:08;;;;;;;25.60;12.90;;;;;;;6.59;100.00;101039.38;5324626;27;20074;-84
2022/12/21 07:48:42;;;;;;;23.48;12.65;;;;;;;6.65;100.00;101052.19;5324897;28;20021;-83
2022/12/21 07:51:13;;;;;;;27.58;13.50;;;;;;;6.66;100.00;101064.47;5322528;28;20039;-84
2022/12/21 07:53:45;;;;;;;25.08;13.75;;;;;;;6.62;100.00;101061.19;5327335;27;20032;-84
2022/12/21 07:56:18;;;;;;;27.95;13.27;;;;;;;6.61;100.00;101056.03;5332335;27;20024;-84
2022/12/21 07:58:49;;;;;;;28.35;13.48;;;;;;;6.71;100.00;101072.09;5332312;27;20503;-83
2022/12/21 08:01:21;;;;;;;35.53;14.05;;;;;;;6.69;100.00;101074.84;5328627;27;20674;-83
2022/12/21 08:03:53;;;;;;;29.80;13.23;;;;;;;6.72;100.00;101064.03;5331556;27;20413;-83
2022/12/21 08:06:24;;;;;;;35.42;13.23;;;;;;;6.75;100.00;101068.25;5331623;27;20083;-84
2022/12/21 08:08:56;;;;;;;30.83;15.85;;;;;;;6.69;100.00;101064.25;5330813;27;20302;-84
2022/12/21 08:11:28;;;;;;;40.67;14.68;;;;;;;6.71;100.00;101059.69;5331874;27;20103;-84
2022/12/21 08:14:00;;;;;;;34.55;15.18;;;;;;;6.70;100.00;101051.88;5325026;27;20044;-84
2022/12/21 08:16:31;;;;;;;34.50;16.77;;;;;;;6.62;100.00;101040.00;5330044;27;20055;-84
2022/12/21 08:19:02;;;;;;;32.53;15.77;;;;;;;6.71;100.00;101051.72;5330884;27;20016;-84
2022/12/21 08:21:34;;;;;;;36.75;16.92;;;;;;;6.75;100.00;101057.66;5327939;27;21588;-84
2022/12/21 08:24:05;;;;;;;38.88;17.63;;;;;;;6.83;100.00;101071.19;5327191;27;20025;-84
2022/12/21 08:26:37;;;;;;;35.72;18.08;;;;;;;6.87;100.00;101079.78;5327639;27;20063;-84
2022/12/21 08:29:13;;;;;;;39.92;17.33;;;;;;;6.89;100.00;101061.94;5327052;27;20023;-84
2022/12/21 08:31:44;;;;;;;42.33;17.85;;;;;;;6.95;100.00;101064.16;5319073;27;20035;-85
2022/12/21 08:34:16;;;;;;;46.03;17.98;;;;;;;6.96;100.00;101065.81;5341718;27;20016;-85
2022/12/21 08:36:47;;;;;;;37.22;17.27;;;;;;;7.13;100.00;101069.88;5331019;27;20524;-84
2022/12/21 08:39:18;;;;;;;46.72;21.52;;;;;;;7.15;100.00;101066.19;5320555;27;20104;-85
2022/12/21 08:41:50;;;;;;;39.30;20.27;;;;;;;7.17;100.00;101060.72;5330502;27;20020;-84
2022/12/21 08:44:21;;;;;;;48.45;21.90;;;;;;;7.15;100.00;101062.66;5337937;27;20027;-84
2022/12/21 08:46:52;;;;;;;49.30;22.15;;;;;;;7.18;100.00;101060.63;5319176;27;20062;-85
2022/12/21 08:49:24;;;;;;;48.00;22.40;;;;;;;7.24;100.00;101069.94;5327188;27;20472;-84
2022/12/21 08:51:55;;;;;;;56.10;23.25;;;;;;;7.27;100.00;101068.84;5327696;27;20051;-84
2022/12/21 08:54:26;;;;;;;51.17;22.83;;;;;;;7.28;100.00;101074.06;5327542;28;20074;-84
2022/12/21 08:56:58;;;;;;;49.42;24.85;;;;;;;7.33;100.00;101073.72;5332090;27;20032;-84
2022/12/21 08:59:29;;;;;;;55.65;24.73;;;;;;;7.35;100.00;101072.63;5329724;27;20034;-85
2022/12/21 09:02:00;;;;;;;56.92;26.27;;;;;;;7.38;100.00;101074.19;5335864;27;20477;-85
2022/12/21 09:04:32;;;;;;;60.72;27.13;;;;;;;7.39;100.00;101074.06;5341330;27;20028;-85
2022/12/21 09:07:03;;;;;;;54.92;28.88;;;;;;;7.38;100.00;101074.19;5341456;27;20204;-85
2022/12/21 09:09:34;;;;;;;59.63;27.63;;;;;;;7.44;100.00;101068.44;5337553;27;20089;-85
2022/12/21 09:12:06;;;;;;;61.28;28.95;;;;;;;7.48;100.00;101064.56;5351962;27;20012;-85
2022/12/21 09:14:37;;;;;;;60.92;28.38;;;;;;;7.52;100.00;101049.25;5352738;27;20373;-84
2022/12/21 09:17:09;;;;;;;58.40;29.55;;;;;;;7.59;100.00;101058.47;5348255;27;20020;-85
2022/12/21 09:19:40;;;;;;;56.78;29.58;;;;;;;7.63;100.00;101045.81;5340174;27;20031;-84
2022/12/21 09:22:12;;;;;;;56.33;28.35;;;;;;;7.58;100.00;101033.72;5340691;27;20020;-85
2022/12/21 09:24:44;;;;;;;62.05;30.08;;;;;;;7.68;100.00;101056.88;5328494;27;20031;-85
2022/12/21 09:27:15;;;;;;;58.05;29.10;;;;;;;7.67;100.00;101053.38;5336765;27;20118;-85
2022/12/21 09:29:47;;;;;;;51.33;26.77;;;;;;;7.72;100.00;101045.91;5328857;27;20112;-85
2022/12/21 09:32:18;;;;;;;56.25;28.75;;;;;;;7.98;100.00;101061.63;5324460;27;20024;-84
2022/12/21 09:34:50;;;;;;;60.80;28.27;;;;;;;8.10;100.00;101066.00;5324463;27;20019;-85
2022/12/21 09:37:21;;;;;;;53.47;26.58;;;;;;;8.19;100.00;101066.22;5334744;27;20129;-85
2022/12/21 09:39:53;;;;;;;56.65;28.83;;;;;;;8.36;100.00;101070.19;5332738;27;20031;-86
2022/12/21 09:42:31;;;;;;;48.70;25.95;;;;;;;8.33;100.00;101081.94;5337341;27;20077;-86
2022/12/21 09:45:15;;;;;;;39.00;21.80;;;;;;;8.25;100.00;101074.53;5328872;27;20366;-85
2022/12/21 09:48:06;;;;;;;43.45;22.85;;;;;;;8.36;100.00;101092.28;5319934;27;20466;-85
2022/12/21 09:50:51;;;;;;;47.63;22.83;;;;;;;8.28;100.00;101087.59;5324084;27;20032;-85
2022/12/21 09:53:26;;;;;;;46.85;22.60;;;;;;;8.14;100.00;101082.53;5325936;27;20106;-84
2022/12/21 09:55:59;;;;;;;43.35;21.92;;;;;;;8.13;100.00;101087.00;5321840;27;20464;-84
2022/12/21 09:58:37;;;;;;;47.95;21.55;;;;;;;8.22;100.00;101087.22;5333647;27;20456;-84
2022/12/21 10:01:26;;;;;;;43.08;23.42;;;;;;;8.39;100.00;101093.88;5325511;27;20361;-84
2022/12/21 10:04:15;;;;;;;42.40;20.38;;;;;;;8.43;100.00;101088.25;5328480;27;20028;-84
2022/12/21 10:07:29;;;;;;;44.20;22.13;;;;;;;8.44;100.00;101089.06;5325761;27;20424;-84
2022/12/21 10:10:22;;;;;;;35.00;19.27;;;;;;;8.35;100.00;101092.44;5328153;27;20055;-84
2022/12/21 10:13:05;;;;;;;34.40;18.70;;;;;;;8.26;100.00;101086.03;5323064;27;20080;-85
2022/12/21 10:15:50;;;;;;;36.42;19.23;;;;;;;8.25;100.00;101085.19;5320760;27;20032;-84
2022/12/21 10:18:47;;;;;;;40.15;19.95;;;;;;;8.21;100.00;101091.72;5325309;27;20035;-85
2022/12/21 10:21:24;;;;;;;33.30;17.77;;;;;;;8.04;100.00;101100.16;5331469;27;20032;-84
2022/12/21 10:23:57;;;;;;;40.05;19.15;;;;;;;7.92;100.00;101096.63;5335970;27;20058;-81
2022/12/21 10:26:32;;;;;;;38.80;17.58;;;;;;;7.97;100.00;101097.13;5334465;27;20471;-82
2022/12/21 10:29:12;;;;;;;39.60;20.15;;;;;;;8.01;100.00;101082.66;5331110;27;20476;-83
2022/12/21 10:31:46;;;;;;;36.78;19.00;;;;;;;8.04;100.00;101092.19;5329743;27;20468;-83
2022/12/21 10:34:30;;;;;;;37.88;20.30;;;;;;;8.14;100.00;101094.00;5333845;27;20100;-83
2022/12/21 10:37:11;;;;;;;37.40;20.02;;;;;;;8.25;100.00;101082.53;5330683;27;20032;-83
2022/12/21 10:39:43;;;;;;;33.92;19.33;;;;;;;8.34;100.00;101083.59;5321337;27;20034;-82
2022/12/21 10:42:42;;;;;;;33.47;18.80;;;;;;;8.50;100.00;101070.81;5333776;27;20467;-82
2022/12/21 10:45:14;;;;;;;31.02;17.55;;;;;;;8.46;100.00;101066.69;5321143;27;20039;-82
2022/12/21 10:47:45;;;;;;;34.53;17.90;;;;;;;8.48;100.00;101055.94;5341114;27;20111;-82
2022/12/21 10:50:23;;;;;;;39.92;17.60;;;;;;;8.54;100.00;101054.59;5315107;27;20111;-82
2022/12/21 10:52:57;;;;;;;32.78;17.08;;;;;;;8.54;100.00;101051.94;5323715;27;20043;-82
2022/12/21 10:55:34;;;;;;;29.48;16.65;;;;;;;8.44;100.00;101044.72;5322363;27;20463;-82
2022/12/21 10:58:17;;;;;;;35.60;17.98;;;;;;;8.45;100.00;101051.75;5321189;27;20058;-82
2022/12/21 11:01:00;;;;;;;33.00;18.10;;;;;;;8.47;100.00;101048.97;5341724;27;20026;-82
2022/12/21 11:03:37;;;;;;;34.33;17.95;;;;;;;8.35;100.00;101041.94;5326342;27;20536;-82
2022/12/21 11:06:16;;;;;;;37.50;18.08;;;;;;;8.47;100.00;101036.50;5318102;27;20048;-81
2022/12/21 11:08:52;;;;;;;35.28;17.95;;;;;;;8.57;100.00;101043.72;5324654;27;20031;-81
2022/12/21 11:11:36;;;;;;;33.72;18.13;;;;;;;8.47;100.00;101041.81;5347367;27;20028;-81
2022/12/21 11:14:16;;;;;;;30.58;17.63;;;;;;;8.48;100.00;101037.34;5324340;27;20032;-81
2022/12/21 11:16:48;;;;;;;34.13;17.40;;;;;;;8.51;100.00;101037.94;5322511;27;20069;-81
2022/12/21 11:19:22;;;;;;;35.20;17.98;;;;;;;8.51;100.00;101040.59;5336570;27;20024;-82
2022/12/21 11:21:57;;;;;;;34.10;19.52;;;;;;;8.62;100.00;101038.88;5334926;27;20020;-81
2022/12/21 11:24:32;;;;;;;32.83;19.45;;;;;;;8.62;100.00;101045.03;5319728;27;20032;-81
2022/12/21 11:27:18;;;;;;;29.77;18.92;;;;;;;8.59;100.00;101032.00;5335353;27;20042;-81
2022/12/21 11:30:07;;;;;;;29.02;16.85;;;;;;;8.54;100.00;101042.19;5335512;27;20016;-81
2022/12/21 11:32:45;;;;;;;26.67;17.63;;;;;;;8.43;100.00;101037.72;5304696;28;20028;-81
2022/12/21 11:35:25;;;;;;;30.13;17.33;;;;;;;8.42;100.00;101043.13;5304318;28;20024;-81
2022/12/21 11:38:10;;;;;;;29.08;17.50;;;;;;;8.41;100.00;101031.63;5322623;28;20380;-82
2022/12/21 11:40:56;;;;;;;32.70;18.65;;;;;;;8.49;100.00;101045.19;5321235;28;20500;-81
2022/12/21 11:43:27;;;;;;;33.60;19.52;;;;;;;8.45;100.00;101045.56;5325755;28;20614;-81
2022/12/21 11:46:22;;;;;;;38.80;19.20;;;;;;;8.45;100.00;101026.94;5325911;27;20032;-81
2022/12/21 11:49:10;;;;;;;35.30;18.85;;;;;;;8.48;100.00;101022.22;5324704;28;20032;-81
2022/12/21 11:52:00;;;;;;;31.02;18.52;;;;;;;8.48;100.00;101040.00;5322989;28;20452;-81
2022/12/21 11:55:27;;;;;;;35.95;19.77;;;;;;;8.53;100.00;101037.81;5322947;27;20027;-81
2022/12/21 11:58:16;;;;;;;31.98;18.00;;;;;;;8.39;100.00;101030.09;5280241;28;20355;-81